createdAt,value
2023-05-02T00:00:09.064Z,4.73
2023-05-02T00:02:38.367Z,5.53
2023-05-02T00:05:07.183Z,6.13
2023-05-02T00:07:35.375Z,5.97
2023-05-02T00:10:03.431Z,6.77
2023-05-02T00:12:31.242Z,5.67
2023-05-02T00:14:59.060Z,6.53
2023-05-02T00:17:27.108Z,6.67
2023-05-02T00:19:56.630Z,4.73
2023-05-02T00:22:24.502Z,6.10
2023-05-02T00:24:57.009Z,6.37
2023-05-02T00:27:24.861Z,5.10
2023-05-02T00:29:53.287Z,5.63
2023-05-02T00:32:21.100Z,6.47
2023-05-02T00:34:48.923Z,6.13
2023-05-02T00:37:18.103Z,8.23
2023-05-02T00:39:46.605Z,6.67
2023-05-02T00:42:22.750Z,5.83
2023-05-02T00:44:50.773Z,6.13
2023-05-02T00:47:18.565Z,7.27
2023-05-02T00:49:46.395Z,5.20
2023-05-02T00:52:14.229Z,5.53
2023-05-02T00:54:44.682Z,5.17
2023-05-02T00:57:12.529Z,4.73
2023-05-02T00:59:40.727Z,5.27
2023-05-02T01:02:21.494Z,5.53
2023-05-02T01:05:00.215Z,7.97
2023-05-02T01:07:42.596Z,6.17
2023-05-02T01:10:22.668Z,5.90
2023-05-02T01:12:59.439Z,6.47
2023-05-02T01:15:28.417Z,5.47
2023-05-02T01:17:57.682Z,6.60
2023-05-02T01:20:28.706Z,5.20
2023-05-02T01:23:01.517Z,6.00
2023-05-02T01:25:37.984Z,7.83
2023-05-02T01:28:15.745Z,8.30
2023-05-02T01:30:50.129Z,7.93
2023-05-02T01:33:19.653Z,9.13
2023-05-02T01:35:51.277Z,8.70
2023-05-02T01:38:21.003Z,9.70
2023-05-02T01:40:51.454Z,10.87
2023-05-02T01:43:21.928Z,9.20
2023-05-02T01:45:53.898Z,9.67
2023-05-02T01:48:23.004Z,11.40
2023-05-02T01:50:52.799Z,9.60
2023-05-02T01:53:22.473Z,11.63
2023-05-02T01:55:51.740Z,12.67
2023-05-02T01:58:21.551Z,10.60
2023-05-02T02:00:52.014Z,11.97
2023-05-02T02:03:20.978Z,10.83
2023-05-02T02:05:50.611Z,9.73
2023-05-02T02:08:18.445Z,9.33
2023-05-02T02:10:51.061Z,8.80
2023-05-02T02:13:20.907Z,9.80
2023-05-02T02:15:52.088Z,10.47
2023-05-02T02:18:22.564Z,9.83
2023-05-02T02:20:51.777Z,8.90
2023-05-02T02:23:22.848Z,11.33
2023-05-02T02:25:53.186Z,11.43
2023-05-02T02:28:21.051Z,10.63
2023-05-02T02:30:48.920Z,12.00
2023-05-02T02:33:18.296Z,11.70
2023-05-02T02:35:53.042Z,10.27
2023-05-02T02:38:31.728Z,11.27
2023-05-02T02:41:12.034Z,9.90
2023-05-02T02:43:53.710Z,11.03
2023-05-02T02:46:35.596Z,11.97
2023-05-02T02:49:18.091Z,10.97
2023-05-02T02:51:51.681Z,11.70
2023-05-02T02:54:27.112Z,12.20
2023-05-02T02:57:02.732Z,12.10
2023-05-02T02:59:34.798Z,12.93
2023-05-02T03:02:08.267Z,11.10
2023-05-02T03:04:39.821Z,12.30
2023-05-02T03:07:08.735Z,11.37
2023-05-02T03:09:46.640Z,12.17
2023-05-02T03:12:15.251Z,10.77
2023-05-02T03:14:43.585Z,14.00
2023-05-02T03:17:11.474Z,12.00
2023-05-02T03:19:41.017Z,13.27
2023-05-02T03:22:08.841Z,13.00
2023-05-02T03:24:36.642Z,13.20
2023-05-02T03:27:04.568Z,12.93
2023-05-02T03:29:32.433Z,11.20
2023-05-02T03:32:00.338Z,12.80
2023-05-02T03:34:28.263Z,12.33
2023-05-02T03:36:57.387Z,11.03
2023-05-02T03:39:25.245Z,12.57
2023-05-02T03:41:53.541Z,13.40
2023-05-02T03:44:21.403Z,10.47
2023-05-02T03:46:49.367Z,11.00
2023-05-02T03:49:17.667Z,13.47
2023-05-02T03:51:45.472Z,12.53
2023-05-02T03:54:14.620Z,14.03
2023-05-02T03:56:42.950Z,11.93
2023-05-02T03:59:10.830Z,14.33
2023-05-02T04:01:38.726Z,12.20
2023-05-02T04:04:06.736Z,11.97
2023-05-02T04:06:34.623Z,13.20
2023-05-02T04:09:02.450Z,12.60
2023-05-02T04:11:31.590Z,12.93
2023-05-02T04:13:59.393Z,11.40
2023-05-02T04:16:27.281Z,13.20
2023-05-02T04:18:55.168Z,13.93
2023-05-02T04:21:23.087Z,12.83
2023-05-02T04:23:50.924Z,12.97
2023-05-02T04:26:18.747Z,12.00
2023-05-02T04:28:47.910Z,14.67
2023-05-02T04:31:16.099Z,12.77
2023-05-02T04:33:44.008Z,13.90
2023-05-02T04:36:11.904Z,13.70
2023-05-02T04:38:39.710Z,12.00
2023-05-02T04:41:09.037Z,14.83
2023-05-02T04:43:37.569Z,12.97
2023-05-02T04:46:06.947Z,12.37
2023-05-02T04:48:34.820Z,12.63
2023-05-02T04:51:02.688Z,12.73
2023-05-02T04:53:30.465Z,14.10
2023-05-02T04:55:58.664Z,11.03
2023-05-02T04:58:26.478Z,9.93
2023-05-02T05:00:54.872Z,11.87
2023-05-02T05:03:24.650Z,12.33
2023-05-02T05:05:52.610Z,11.40
2023-05-02T05:08:20.465Z,10.80
2023-05-02T05:10:48.352Z,11.70
2023-05-02T05:13:16.186Z,10.80
2023-05-02T05:15:44.542Z,13.27
2023-05-02T05:18:12.578Z,14.37
2023-05-02T05:20:41.765Z,13.50
2023-05-02T05:23:09.621Z,11.27
2023-05-02T05:25:37.431Z,11.40
2023-05-02T05:28:05.295Z,11.87
2023-05-02T05:30:33.169Z,11.17
2023-05-02T05:33:01.153Z,10.43
2023-05-02T05:35:29.110Z,11.03
2023-05-02T05:37:58.344Z,10.47
2023-05-02T05:40:26.281Z,10.90
2023-05-02T05:42:54.114Z,11.67
2023-05-02T05:45:22.678Z,11.13
2023-05-02T05:47:50.577Z,59.73
2023-05-02T05:50:18.535Z,18.90
2023-05-02T05:52:46.324Z,10.73
2023-05-02T05:55:16.261Z,8.63
2023-05-02T05:57:44.078Z,11.60
2023-05-02T06:00:13.158Z,10.60
2023-05-02T06:02:41.049Z,12.37
2023-05-02T06:05:09.588Z,9.60
2023-05-02T06:07:37.395Z,12.37
2023-05-02T06:10:06.410Z,10.87
2023-05-02T06:12:35.524Z,9.47
2023-05-02T06:15:03.440Z,9.20
2023-05-02T06:17:31.390Z,8.53
2023-05-02T06:19:59.389Z,10.90
2023-05-02T06:22:27.462Z,11.67
2023-05-02T06:24:55.808Z,9.50
2023-05-02T06:27:23.654Z,9.37
2023-05-02T06:29:53.890Z,9.20
2023-05-02T06:32:21.736Z,13.93
2023-05-02T06:34:49.598Z,11.27
2023-05-02T06:37:17.407Z,13.87
2023-05-02T06:39:45.241Z,11.40
2023-05-02T06:42:13.100Z,8.73
2023-05-02T06:44:40.962Z,9.57
2023-05-02T06:47:10.179Z,12.37
2023-05-02T06:49:38.097Z,10.73
2023-05-02T06:52:05.945Z,10.97
2023-05-02T06:54:33.787Z,10.77
2023-05-02T06:57:02.164Z,7.77
2023-05-02T06:59:30.017Z,7.73
2023-05-02T07:01:57.830Z,8.87
2023-05-02T07:04:29.882Z,7.80
2023-05-02T07:06:57.756Z,8.93
2023-05-02T07:09:25.746Z,9.13
2023-05-02T07:11:53.536Z,8.13
2023-05-02T07:14:21.607Z,9.27
2023-05-02T07:16:49.574Z,8.23
2023-05-02T07:19:17.460Z,8.97
2023-05-02T07:21:46.596Z,7.67
2023-05-02T07:24:14.396Z,8.53
2023-05-02T07:26:42.378Z,9.47
2023-05-02T07:29:10.265Z,8.67
2023-05-02T07:31:38.408Z,8.33
2023-05-02T07:34:06.358Z,8.33
2023-05-02T07:36:34.228Z,9.47
2023-05-02T07:39:03.419Z,9.63
2023-05-02T07:41:31.247Z,11.40
2023-05-02T07:43:59.075Z,9.00
2023-05-02T07:46:27.052Z,8.97
2023-05-02T07:48:54.946Z,10.47
2023-05-02T07:51:22.739Z,12.67
2023-05-02T07:53:53.016Z,10.70
2023-05-02T07:56:22.359Z,10.00
2023-05-02T07:58:51.512Z,11.17
2023-05-02T08:01:19.704Z,11.87
2023-05-02T08:03:48.145Z,11.47
2023-05-02T08:06:16.177Z,9.80
2023-05-02T08:08:44.058Z,12.47
2023-05-02T08:11:11.857Z,13.20
2023-05-02T08:13:41.032Z,12.27
2023-05-02T08:16:09.095Z,14.00
2023-05-02T08:18:36.988Z,14.53
2023-05-02T08:21:05.380Z,15.37
2023-05-02T08:23:33.238Z,11.83
2023-05-02T08:26:01.088Z,15.20
2023-05-02T08:28:28.909Z,16.40
2023-05-02T08:30:58.209Z,14.67
2023-05-02T08:33:26.498Z,15.23
2023-05-02T08:35:54.282Z,17.27
2023-05-02T08:38:22.141Z,16.27
2023-05-02T08:40:49.991Z,16.83
2023-05-02T08:43:18.220Z,12.93
2023-05-02T08:45:46.636Z,18.60
2023-05-02T08:48:17.921Z,13.30
2023-05-02T08:50:48.366Z,15.70
2023-05-02T08:53:16.565Z,13.50
2023-05-02T08:55:44.493Z,15.43
2023-05-02T08:58:14.689Z,15.53
2023-05-02T09:00:44.077Z,14.97
2023-05-02T09:03:23.757Z,19.10
2023-05-02T09:05:54.676Z,16.67
2023-05-02T09:08:25.988Z,18.53
2023-05-02T09:10:53.957Z,17.53
2023-05-02T09:13:32.928Z,18.03
2023-05-02T09:16:03.078Z,17.37
2023-05-02T09:18:34.399Z,17.90
2023-05-02T09:21:06.358Z,14.83
2023-05-02T09:23:35.520Z,14.03
2023-05-02T09:26:11.574Z,13.97
2023-05-02T09:28:41.059Z,14.07
2023-05-02T09:31:10.542Z,13.73
2023-05-02T09:33:40.527Z,16.87
2023-05-02T09:36:09.829Z,16.23
2023-05-02T09:38:39.842Z,14.43
2023-05-02T09:41:07.812Z,15.93
2023-05-02T09:43:35.704Z,14.57
2023-05-02T09:46:05.198Z,15.17
2023-05-02T09:48:34.494Z,13.70
2023-05-02T09:51:04.731Z,14.07
2023-05-02T09:53:32.751Z,13.93
2023-05-02T09:56:02.053Z,13.17
2023-05-02T09:58:30.931Z,16.03
2023-05-02T10:00:59.886Z,13.87
2023-05-02T10:03:28.962Z,12.53
2023-05-02T10:06:00.523Z,13.63
2023-05-02T10:08:30.073Z,13.97
2023-05-02T10:10:59.381Z,14.53
2023-05-02T10:13:32.255Z,13.63
2023-05-02T10:16:01.949Z,13.00
2023-05-02T10:18:39.787Z,15.03
2023-05-02T10:21:11.360Z,15.03
2023-05-02T10:23:43.711Z,14.37
2023-05-02T10:26:15.690Z,13.67
2023-05-02T10:28:43.938Z,12.57
2023-05-02T10:31:12.413Z,14.20
2023-05-02T10:33:41.060Z,14.83
2023-05-02T10:36:12.991Z,12.77
2023-05-02T10:38:43.197Z,12.40
2023-05-02T10:41:15.221Z,11.60
2023-05-02T10:43:49.117Z,13.50
2023-05-02T10:46:33.613Z,12.57
2023-05-02T10:49:02.929Z,13.63
2023-05-02T10:51:32.416Z,11.17
2023-05-02T10:54:24.039Z,11.20
2023-05-02T10:57:04.168Z,14.63
2023-05-02T10:59:33.488Z,13.07
2023-05-02T11:02:01.590Z,13.60
2023-05-02T11:05:00.162Z,11.60
2023-05-02T11:07:28.461Z,12.93
2023-05-02T11:10:26.190Z,12.63
2023-05-02T11:12:54.563Z,11.53
2023-05-02T11:15:55.968Z,12.47
2023-05-02T11:18:24.085Z,12.73
2023-05-02T11:20:51.893Z,11.87
2023-05-02T11:23:27.622Z,14.93
2023-05-02T11:26:00.362Z,13.67
2023-05-02T11:28:42.372Z,12.13
2023-05-02T11:31:11.195Z,13.37
2023-05-02T11:33:39.085Z,12.13
2023-05-02T11:36:07.103Z,12.37
2023-05-02T11:38:39.338Z,12.50
2023-05-02T11:41:08.552Z,12.40
2023-05-02T11:43:36.349Z,15.37
2023-05-02T11:46:05.939Z,11.57
2023-05-02T11:48:34.025Z,11.73
2023-05-02T11:51:05.047Z,11.33
2023-05-02T11:53:33.613Z,13.97
2023-05-02T11:56:02.943Z,10.67
2023-05-02T11:58:33.787Z,12.67
2023-05-02T12:01:14.088Z,12.60
2023-05-02T12:03:42.574Z,15.03
2023-05-02T12:06:12.445Z,12.93
2023-05-02T12:08:40.984Z,17.70
2023-05-02T12:11:09.203Z,12.10
2023-05-02T12:13:46.624Z,14.63
2023-05-02T12:16:14.879Z,13.87
2023-05-02T12:18:43.103Z,14.23
2023-05-02T12:21:11.218Z,12.57
2023-05-02T12:23:42.386Z,15.13
2023-05-02T12:26:20.342Z,12.77
2023-05-02T12:28:54.793Z,13.27
2023-05-02T12:31:23.674Z,12.30
2023-05-02T12:33:52.582Z,12.07
2023-05-02T12:36:20.624Z,11.87
2023-05-02T12:38:53.162Z,12.93
2023-05-02T12:41:35.035Z,11.10
2023-05-02T12:44:04.797Z,12.97
2023-05-02T12:46:33.043Z,13.87
2023-05-02T12:49:05.849Z,12.50
2023-05-02T12:51:34.567Z,12.23
2023-05-02T12:54:02.617Z,11.47
2023-05-02T12:56:32.517Z,10.67
2023-05-02T12:59:04.848Z,11.20
2023-05-02T13:01:35.586Z,11.97
2023-05-02T13:04:03.866Z,10.83
2023-05-02T13:06:32.183Z,10.70
2023-05-02T13:09:00.138Z,9.87
2023-05-02T13:11:28.232Z,9.10
2023-05-02T13:13:56.537Z,11.30
2023-05-02T13:16:25.938Z,11.90
2023-05-02T13:18:55.329Z,10.90
2023-05-02T13:21:23.469Z,10.17
2023-05-02T13:23:52.252Z,10.67
2023-05-02T13:26:20.031Z,9.70
2023-05-02T13:28:47.861Z,12.00
2023-05-02T13:31:15.743Z,8.63
2023-05-02T13:33:43.622Z,8.03
2023-05-02T13:36:12.754Z,9.37
2023-05-02T13:38:41.067Z,9.70
2023-05-02T13:41:08.866Z,9.90
2023-05-02T13:43:36.656Z,9.67
2023-05-02T13:46:04.495Z,7.33
2023-05-02T13:48:32.425Z,8.03
2023-05-02T13:51:00.194Z,8.50
2023-05-02T13:53:29.690Z,10.23
2023-05-02T13:55:57.493Z,10.83
2023-05-02T13:58:25.302Z,8.30
2023-05-02T14:00:53.223Z,9.57
2023-05-02T14:03:21.231Z,9.40
2023-05-02T14:05:49.151Z,8.93
2023-05-02T14:08:18.518Z,7.97
2023-05-02T14:10:47.753Z,8.67
2023-05-02T14:13:15.695Z,8.33
2023-05-02T14:15:43.575Z,7.47
2023-05-02T14:18:11.407Z,8.00
2023-05-02T14:20:39.254Z,11.00
2023-05-02T14:23:07.669Z,10.50
2023-05-02T14:25:36.466Z,10.27
2023-05-02T14:28:06.199Z,11.60
2023-05-02T14:30:33.995Z,10.90
2023-05-02T14:33:01.860Z,12.07
2023-05-02T14:35:29.685Z,12.43
2023-05-02T14:37:57.504Z,10.37
2023-05-02T14:40:25.346Z,11.63
2023-05-02T14:42:53.119Z,12.23
2023-05-02T14:45:22.464Z,12.20
2023-05-02T14:47:50.514Z,10.30
2023-05-02T14:50:18.579Z,13.27
2023-05-02T14:52:47.178Z,13.50
2023-05-02T14:55:14.987Z,13.03
2023-05-02T14:57:42.905Z,13.40
2023-05-02T15:00:11.759Z,11.80
2023-05-02T15:02:41.368Z,12.47
2023-05-02T15:05:12.302Z,11.47
2023-05-02T15:07:40.633Z,12.17
2023-05-02T15:10:10.314Z,13.23
2023-05-02T15:12:38.134Z,14.80
2023-05-02T15:15:06.790Z,12.47
2023-05-02T15:17:34.608Z,15.13
2023-05-02T15:20:04.254Z,17.10
2023-05-02T15:22:32.343Z,14.10
2023-05-02T15:25:00.508Z,13.53
2023-05-02T15:27:29.043Z,14.67
2023-05-02T15:29:56.846Z,15.20
2023-05-02T15:32:24.687Z,13.57
2023-05-02T15:34:52.537Z,14.17
2023-05-02T15:37:21.682Z,16.43
2023-05-02T15:39:50.590Z,16.57
2023-05-02T15:42:18.400Z,14.63
2023-05-02T15:44:46.220Z,14.43
2023-05-02T15:47:14.035Z,14.37
2023-05-02T15:49:42.374Z,13.23
2023-05-02T15:52:10.235Z,12.63
2023-05-02T15:54:39.393Z,11.53
2023-05-02T15:57:07.557Z,14.43
2023-05-02T15:59:35.384Z,15.93
2023-05-02T16:02:03.246Z,14.57
2023-05-02T16:04:32.162Z,15.03
2023-05-02T16:07:00.007Z,18.47
2023-05-02T16:09:28.300Z,13.77
2023-05-02T16:11:57.880Z,13.63
2023-05-02T16:14:26.583Z,15.73
2023-05-02T16:16:56.705Z,14.43
2023-05-02T16:19:24.684Z,12.47
2023-05-02T16:21:52.576Z,12.37
2023-05-02T16:24:20.494Z,10.50
2023-05-02T16:26:48.322Z,12.07
2023-05-02T16:29:17.464Z,13.07
2023-05-02T16:31:45.390Z,12.00
2023-05-02T16:34:13.268Z,10.73
2023-05-02T16:36:41.212Z,12.07
2023-05-02T16:39:09.309Z,11.10
2023-05-02T16:41:37.128Z,9.73
2023-05-02T16:44:05.106Z,11.17
2023-05-02T16:46:34.563Z,10.57
2023-05-02T16:49:02.383Z,9.50
2023-05-02T16:51:31.350Z,11.23
2023-05-02T16:53:59.205Z,9.20
2023-05-02T16:56:27.146Z,10.60
2023-05-02T16:58:55.440Z,9.57
2023-05-02T17:01:23.671Z,9.47
2023-05-02T17:03:52.907Z,11.33
2023-05-02T17:06:20.895Z,10.60
2023-05-02T17:08:48.712Z,9.87
2023-05-02T17:11:17.355Z,11.50
2023-05-02T17:13:47.116Z,9.40
2023-05-02T17:16:15.248Z,9.13
2023-05-02T17:18:43.089Z,9.07
2023-05-02T17:21:12.587Z,7.53
2023-05-02T17:23:40.496Z,8.47
2023-05-02T17:26:14.154Z,9.17
2023-05-02T17:28:42.102Z,9.37
2023-05-02T17:31:10.070Z,9.97
2023-05-02T17:33:38.266Z,7.47
2023-05-02T17:36:06.888Z,9.13
2023-05-02T17:38:36.047Z,8.33
2023-05-02T17:41:04.007Z,7.90
2023-05-02T17:43:32.037Z,7.97
2023-05-02T17:45:59.948Z,9.00
2023-05-02T17:48:27.776Z,8.20
2023-05-02T17:50:55.989Z,6.63
2023-05-02T17:53:24.389Z,7.70
2023-05-02T17:55:53.564Z,8.00
2023-05-02T17:58:21.400Z,6.87
2023-05-02T18:00:49.251Z,8.67
2023-05-02T18:03:17.319Z,5.43
2023-05-02T18:05:47.312Z,6.60
2023-05-02T18:08:15.818Z,6.23
2023-05-02T18:10:44.315Z,6.00
2023-05-02T18:13:13.473Z,5.13
2023-05-02T18:15:41.271Z,5.33
2023-05-02T18:18:09.218Z,6.70
2023-05-02T18:20:39.991Z,6.50
2023-05-02T18:23:07.838Z,5.83
2023-05-02T18:25:35.853Z,6.80
2023-05-02T18:28:04.053Z,5.57
2023-05-02T18:30:36.504Z,4.87
2023-05-02T18:33:04.418Z,6.87
2023-05-02T18:35:32.387Z,6.13
2023-05-02T18:38:00.404Z,5.37
2023-05-02T18:40:28.314Z,7.87
2023-05-02T18:42:56.116Z,6.60
2023-05-02T18:45:23.908Z,5.10
2023-05-02T18:47:53.116Z,5.57
2023-05-02T18:50:21.312Z,4.67
2023-05-02T18:52:49.155Z,7.13
2023-05-02T18:55:17.049Z,7.50
2023-05-02T18:57:45.282Z,7.27
2023-05-02T19:00:13.988Z,9.03
2023-05-02T19:02:41.903Z,9.43
2023-05-02T19:05:11.716Z,11.90
2023-05-02T19:07:39.963Z,7.10
2023-05-02T19:10:08.481Z,9.00
2023-05-02T19:12:36.278Z,6.30
2023-05-02T19:15:05.061Z,6.63
2023-05-02T19:17:33.293Z,9.00
2023-05-02T19:20:01.279Z,8.63
2023-05-02T19:22:32.159Z,6.87
2023-05-02T19:25:00.937Z,7.63
2023-05-02T19:27:28.955Z,6.23
2023-05-02T19:29:58.118Z,6.60
2023-05-02T19:32:26.112Z,8.37
2023-05-02T19:34:54.467Z,8.50
2023-05-02T19:37:22.302Z,8.17
2023-05-02T19:39:51.474Z,8.87
2023-05-02T19:42:19.269Z,7.57
2023-05-02T19:44:48.075Z,7.10
2023-05-02T19:47:15.880Z,8.83
2023-05-02T19:49:44.043Z,6.43
2023-05-02T19:52:11.943Z,6.87
2023-05-02T19:54:39.837Z,6.90
2023-05-02T19:57:09.041Z,9.07
2023-05-02T19:59:36.854Z,6.40
2023-05-02T20:02:04.777Z,6.70
2023-05-02T20:04:32.704Z,6.83
2023-05-02T20:07:00.481Z,7.47
2023-05-02T20:09:29.615Z,8.40
2023-05-02T20:11:57.435Z,8.77
2023-05-02T20:14:26.589Z,11.27
2023-05-02T20:17:01.359Z,6.53
2023-05-02T20:19:32.218Z,8.10
2023-05-02T20:22:00.095Z,7.20
2023-05-02T20:24:28.094Z,9.37
2023-05-02T20:26:55.924Z,6.23
2023-05-02T20:29:23.988Z,8.23
2023-05-02T20:31:54.487Z,6.93
2023-05-02T20:34:24.161Z,7.73
2023-05-02T20:36:52.541Z,7.27
2023-05-02T20:39:21.707Z,8.30
2023-05-02T20:41:49.933Z,8.43
2023-05-02T20:44:18.685Z,9.00
2023-05-02T20:46:46.513Z,8.97
2023-05-02T20:49:15.730Z,6.37
2023-05-02T20:51:43.549Z,8.37
2023-05-02T20:54:11.412Z,7.17
2023-05-02T20:56:39.220Z,7.23
2023-05-02T20:59:07.315Z,7.10
2023-05-02T21:01:35.337Z,8.27
2023-05-02T21:04:04.585Z,7.53
2023-05-02T21:06:33.978Z,10.03
2023-05-02T21:09:02.260Z,7.80
2023-05-02T21:11:30.296Z,8.43
2023-05-02T21:13:58.095Z,7.27
2023-05-02T21:16:26.072Z,7.60
2023-05-02T21:18:54.947Z,6.80
2023-05-02T21:21:24.070Z,5.67
2023-05-02T21:23:53.232Z,4.40
2023-05-02T21:26:21.053Z,5.20
2023-05-02T21:28:48.836Z,4.57
2023-05-02T21:31:16.956Z,5.10
2023-05-02T21:33:44.920Z,12.60
2023-05-02T21:36:12.715Z,12.53
2023-05-02T21:38:40.549Z,6.80
2023-05-02T21:41:10.052Z,6.40
2023-05-02T21:43:40.514Z,7.63
2023-05-02T21:46:08.408Z,8.30
2023-05-02T21:48:36.231Z,6.83
2023-05-02T21:51:08.303Z,5.83
2023-05-02T21:53:36.172Z,6.30
2023-05-02T21:56:04.028Z,6.33
2023-05-02T21:58:33.228Z,5.57
2023-05-02T22:01:01.439Z,4.60
2023-05-02T22:03:30.144Z,5.77
2023-05-02T22:06:00.917Z,4.73
2023-05-02T22:08:28.802Z,4.03
2023-05-02T22:10:58.477Z,4.57
2023-05-02T22:13:26.904Z,7.10
2023-05-02T22:15:56.067Z,5.80
2023-05-02T22:18:23.878Z,6.57
2023-05-02T22:20:51.698Z,7.87
2023-05-02T22:23:19.548Z,4.90
2023-05-02T22:25:47.377Z,6.67
2023-05-02T22:28:15.213Z,5.03
2023-05-02T22:30:43.781Z,5.03
2023-05-02T22:33:14.110Z,8.47
2023-05-02T22:35:42.074Z,6.23
2023-05-02T22:38:10.023Z,8.50
2023-05-02T22:40:37.822Z,6.67
2023-05-02T22:43:05.701Z,7.17
2023-05-02T22:45:33.868Z,7.80
2023-05-02T22:48:01.794Z,7.90
2023-05-02T22:50:31.921Z,8.40
2023-05-02T22:53:00.172Z,6.27
2023-05-02T22:55:27.982Z,8.47
2023-05-02T22:57:55.822Z,7.30
2023-05-02T23:00:23.912Z,6.93
2023-05-02T23:05:19.728Z,7.83
2023-05-02T23:07:49.614Z,8.30
2023-05-02T23:10:17.618Z,7.63
2023-05-02T23:12:45.455Z,7.03
2023-05-02T23:15:13.317Z,8.13
2023-05-02T23:17:41.987Z,5.77
2023-05-02T23:20:11.344Z,6.60
2023-05-02T23:22:44.919Z,5.83
2023-05-02T23:25:15.659Z,8.50
2023-05-02T23:27:43.568Z,8.83
2023-05-02T23:30:12.341Z,7.50
2023-05-02T23:32:40.381Z,6.17
2023-05-02T23:35:09.332Z,6.30
2023-05-02T23:37:37.154Z,6.17
2023-05-02T23:40:05.950Z,4.80
2023-05-02T23:42:35.961Z,5.30
2023-05-02T23:45:03.846Z,7.80
2023-05-02T23:47:31.641Z,5.27
2023-05-02T23:49:59.509Z,5.87
2023-05-02T23:52:27.559Z,7.40
2023-05-02T23:54:55.463Z,5.97
2023-05-02T23:57:23.670Z,5.67
2023-05-02T23:59:53.519Z,5.97
